sensor_id;sensor_type;location;lat;lon;timestamp;P1;durP1;ratioP1;P2;durP2;ratioP2
26042;SDS011;13818;52.156;5.382;2022-07-06T00:02:26;6.78;;;1.00;;
26042;SDS011;13818;52.156;5.382;2022-07-06T00:04:52;2.67;;;0.85;;
26042;SDS011;13818;52.156;5.382;2022-07-06T00:07:19;2.78;;;0.68;;
26042;SDS011;13818;52.156;5.382;2022-07-06T00:09:46;2.05;;;0.85;;
26042;SDS011;13818;52.156;5.382;2022-07-06T00:12:13;5.05;;;0.75;;
26042;SDS011;13818;52.156;5.382;2022-07-06T00:14:40;4.57;;;0.75;;
26042;SDS011;13818;52.156;5.382;2022-07-06T00:17:06;2.33;;;0.70;;
26042;SDS011;13818;52.156;5.382;2022-07-06T00:19:34;2.20;;;0.75;;
26042;SDS011;13818;52.156;5.382;2022-07-06T00:22:01;2.95;;;0.80;;
26042;SDS011;13818;52.156;5.382;2022-07-06T00:24:27;4.82;;;1.05;;
26042;SDS011;13818;52.156;5.382;2022-07-06T00:26:54;1.92;;;0.93;;
26042;SDS011;13818;52.156;5.382;2022-07-06T00:29:20;2.92;;;1.17;;
26042;SDS011;13818;52.156;5.382;2022-07-06T00:31:46;2.83;;;0.75;;
26042;SDS011;13818;52.156;5.382;2022-07-06T00:34:13;6.07;;;0.93;;
26042;SDS011;13818;52.156;5.382;2022-07-06T00:36:41;5.22;;;1.08;;
26042;SDS011;13818;52.156;5.382;2022-07-06T00:39:07;3.58;;;0.80;;
26042;SDS011;13818;52.156;5.382;2022-07-06T00:41:34;2.53;;;1.10;;
26042;SDS011;13818;52.156;5.382;2022-07-06T00:44:00;1.33;;;0.70;;
26042;SDS011;13818;52.156;5.382;2022-07-06T00:46:33;1.50;;;0.82;;
26042;SDS011;13818;52.156;5.382;2022-07-06T00:49:00;3.38;;;1.10;;
26042;SDS011;13818;52.156;5.382;2022-07-06T00:51:28;3.10;;;0.90;;
26042;SDS011;13818;52.156;5.382;2022-07-06T00:53:57;3.10;;;1.10;;
26042;SDS011;13818;52.156;5.382;2022-07-06T00:56:25;4.10;;;1.25;;
26042;SDS011;13818;52.156;5.382;2022-07-06T00:58:54;2.92;;;1.08;;
26042;SDS011;13818;52.156;5.382;2022-07-06T01:01:21;3.83;;;1.55;;
26042;SDS011;13818;52.156;5.382;2022-07-06T01:03:47;2.00;;;0.70;;
26042;SDS011;13818;52.156;5.382;2022-07-06T01:06:14;3.30;;;0.70;;
26042;SDS011;13818;52.156;5.382;2022-07-06T01:08:41;4.20;;;0.90;;
26042;SDS011;13818;52.156;5.382;2022-07-06T01:11:09;2.50;;;0.90;;
26042;SDS011;13818;52.156;5.382;2022-07-06T01:13:36;2.67;;;1.35;;
26042;SDS011;13818;52.156;5.382;2022-07-06T01:16:03;4.13;;;0.95;;
26042;SDS011;13818;52.156;5.382;2022-07-06T01:18:30;4.05;;;0.75;;
26042;SDS011;13818;52.156;5.382;2022-07-06T01:21:07;2.22;;;0.82;;
26042;SDS011;13818;52.156;5.382;2022-07-06T01:23:38;2.00;;;0.88;;
26042;SDS011;13818;52.156;5.382;2022-07-06T01:26:05;3.22;;;0.90;;
26042;SDS011;13818;52.156;5.382;2022-07-06T01:28:32;1.85;;;0.70;;
26042;SDS011;13818;52.156;5.382;2022-07-06T01:30:58;4.28;;;1.02;;
26042;SDS011;13818;52.156;5.382;2022-07-06T01:33:25;2.45;;;1.10;;
26042;SDS011;13818;52.156;5.382;2022-07-06T01:35:51;5.18;;;1.00;;
26042;SDS011;13818;52.156;5.382;2022-07-06T01:38:19;3.13;;;1.35;;
26042;SDS011;13818;52.156;5.382;2022-07-06T01:40:45;5.15;;;0.98;;
26042;SDS011;13818;52.156;5.382;2022-07-06T01:43:12;2.65;;;1.00;;
26042;SDS011;13818;52.156;5.382;2022-07-06T01:45:38;4.38;;;1.10;;
26042;SDS011;13818;52.156;5.382;2022-07-06T01:48:05;7.53;;;1.17;;
26042;SDS011;13818;52.156;5.382;2022-07-06T01:50:31;4.65;;;1.08;;
26042;SDS011;13818;52.156;5.382;2022-07-06T01:52:59;3.80;;;0.82;;
26042;SDS011;13818;52.156;5.382;2022-07-06T01:55:27;4.22;;;0.90;;
26042;SDS011;13818;52.156;5.382;2022-07-06T01:57:53;2.95;;;1.10;;
26042;SDS011;13818;52.156;5.382;2022-07-06T02:00:20;3.10;;;0.82;;
26042;SDS011;13818;52.156;5.382;2022-07-06T02:02:46;2.42;;;0.90;;
26042;SDS011;13818;52.156;5.382;2022-07-06T02:05:12;3.47;;;0.60;;
26042;SDS011;13818;52.156;5.382;2022-07-06T02:07:39;2.17;;;0.80;;
26042;SDS011;13818;52.156;5.382;2022-07-06T02:10:06;4.10;;;0.95;;
26042;SDS011;13818;52.156;5.382;2022-07-06T02:12:34;3.08;;;1.10;;
26042;SDS011;13818;52.156;5.382;2022-07-06T02:15:00;2.38;;;0.85;;
26042;SDS011;13818;52.156;5.382;2022-07-06T02:17:28;2.72;;;0.85;;
26042;SDS011;13818;52.156;5.382;2022-07-06T02:19:54;3.88;;;0.82;;
26042;SDS011;13818;52.156;5.382;2022-07-06T02:22:20;3.30;;;0.75;;
26042;SDS011;13818;52.156;5.382;2022-07-06T02:24:47;2.05;;;0.63;;
26042;SDS011;13818;52.156;5.382;2022-07-06T02:27:13;1.02;;;0.80;;
26042;SDS011;13818;52.156;5.382;2022-07-06T02:29:41;1.67;;;0.65;;
26042;SDS011;13818;52.156;5.382;2022-07-06T02:32:08;2.83;;;0.90;;
26042;SDS011;13818;52.156;5.382;2022-07-06T02:34:34;3.25;;;0.95;;
26042;SDS011;13818;52.156;5.382;2022-07-06T02:37:01;5.70;;;0.65;;
26042;SDS011;13818;52.156;5.382;2022-07-06T02:39:27;2.83;;;0.70;;
26042;SDS011;13818;52.156;5.382;2022-07-06T02:41:54;4.25;;;0.88;;
26042;SDS011;13818;52.156;5.382;2022-07-06T02:44:20;3.65;;;0.85;;
26042;SDS011;13818;52.156;5.382;2022-07-06T02:46:48;2.20;;;0.73;;
26042;SDS011;13818;52.156;5.382;2022-07-06T02:49:14;1.55;;;0.75;;
26042;SDS011;13818;52.156;5.382;2022-07-06T02:51:41;5.18;;;0.90;;
26042;SDS011;13818;52.156;5.382;2022-07-06T02:54:07;2.97;;;0.98;;
26042;SDS011;13818;52.156;5.382;2022-07-06T02:56:33;2.75;;;0.68;;
26042;SDS011;13818;52.156;5.382;2022-07-06T02:59:00;2.17;;;1.20;;
26042;SDS011;13818;52.156;5.382;2022-07-06T03:01:27;2.97;;;0.88;;
26042;SDS011;13818;52.156;5.382;2022-07-06T03:03:55;3.90;;;1.02;;
26042;SDS011;13818;52.156;5.382;2022-07-06T03:06:21;5.95;;;0.88;;
26042;SDS011;13818;52.156;5.382;2022-07-06T03:08:48;1.92;;;0.82;;
26042;SDS011;13818;52.156;5.382;2022-07-06T03:11:14;5.38;;;0.90;;
26042;SDS011;13818;52.156;5.382;2022-07-06T03:13:41;2.42;;;0.80;;
26042;SDS011;13818;52.156;5.382;2022-07-06T03:16:07;4.25;;;0.65;;
26042;SDS011;13818;52.156;5.382;2022-07-06T03:18:34;2.85;;;0.70;;
26042;SDS011;13818;52.156;5.382;2022-07-06T03:21:02;5.03;;;0.80;;
26042;SDS011;13818;52.156;5.382;2022-07-06T03:23:29;3.20;;;0.70;;
26042;SDS011;13818;52.156;5.382;2022-07-06T03:25:56;5.13;;;0.90;;
26042;SDS011;13818;52.156;5.382;2022-07-06T03:28:22;6.93;;;1.40;;
26042;SDS011;13818;52.156;5.382;2022-07-06T03:30:48;4.90;;;0.70;;
26042;SDS011;13818;52.156;5.382;2022-07-06T03:33:15;1.73;;;0.70;;
26042;SDS011;13818;52.156;5.382;2022-07-06T03:35:41;3.33;;;0.85;;
26042;SDS011;13818;52.156;5.382;2022-07-06T03:38:09;1.83;;;0.68;;
26042;SDS011;13818;52.156;5.382;2022-07-06T03:40:35;2.80;;;0.50;;
26042;SDS011;13818;52.156;5.382;2022-07-06T03:43:02;2.78;;;0.50;;
26042;SDS011;13818;52.156;5.382;2022-07-06T03:45:28;4.35;;;0.70;;
26042;SDS011;13818;52.156;5.382;2022-07-06T03:47:55;4.30;;;0.57;;
26042;SDS011;13818;52.156;5.382;2022-07-06T03:50:22;3.85;;;0.75;;
26042;SDS011;13818;52.156;5.382;2022-07-06T03:52:48;6.55;;;1.25;;
26042;SDS011;13818;52.156;5.382;2022-07-06T03:55:16;1.33;;;0.60;;
26042;SDS011;13818;52.156;5.382;2022-07-06T03:57:43;2.58;;;0.50;;
26042;SDS011;13818;52.156;5.382;2022-07-06T04:00:09;1.88;;;0.60;;
26042;SDS011;13818;52.156;5.382;2022-07-06T04:02:37;1.88;;;0.50;;
26042;SDS011;13818;52.156;5.382;2022-07-06T04:05:03;2.10;;;0.60;;
26042;SDS011;13818;52.156;5.382;2022-07-06T04:07:30;2.45;;;0.68;;
26042;SDS011;13818;52.156;5.382;2022-07-06T04:09:57;3.92;;;0.65;;
26042;SDS011;13818;52.156;5.382;2022-07-06T04:12:25;2.05;;;0.70;;
26042;SDS011;13818;52.156;5.382;2022-07-06T04:14:51;1.98;;;0.55;;
26042;SDS011;13818;52.156;5.382;2022-07-06T04:17:17;2.83;;;0.70;;
26042;SDS011;13818;52.156;5.382;2022-07-06T04:20:02;2.50;;;0.60;;
26042;SDS011;13818;52.156;5.382;2022-07-06T04:22:28;3.38;;;0.52;;
26042;SDS011;13818;52.156;5.382;2022-07-06T04:24:55;2.72;;;0.52;;
26042;SDS011;13818;52.156;5.382;2022-07-06T04:27:21;3.10;;;0.63;;
26042;SDS011;13818;52.156;5.382;2022-07-06T04:29:50;3.45;;;0.50;;
26042;SDS011;13818;52.156;5.382;2022-07-06T04:32:16;1.55;;;0.50;;
26042;SDS011;13818;52.156;5.382;2022-07-06T04:34:43;2.85;;;0.80;;
26042;SDS011;13818;52.156;5.382;2022-07-06T04:37:09;1.38;;;0.40;;
26042;SDS011;13818;52.156;5.382;2022-07-06T04:39:36;3.00;;;0.73;;
26042;SDS011;13818;52.156;5.382;2022-07-06T04:42:02;2.75;;;0.75;;
26042;SDS011;13818;52.156;5.382;2022-07-06T04:44:29;6.82;;;0.80;;
26042;SDS011;13818;52.156;5.382;2022-07-06T04:46:57;3.38;;;0.55;;
26042;SDS011;13818;52.156;5.382;2022-07-06T04:49:23;1.77;;;0.70;;
26042;SDS011;13818;52.156;5.382;2022-07-06T04:51:50;5.32;;;1.00;;
26042;SDS011;13818;52.156;5.382;2022-07-06T04:54:17;5.38;;;0.60;;
26042;SDS011;13818;52.156;5.382;2022-07-06T04:56:43;2.10;;;0.50;;
26042;SDS011;13818;52.156;5.382;2022-07-06T04:59:11;3.75;;;0.63;;
26042;SDS011;13818;52.156;5.382;2022-07-06T05:01:38;1.75;;;0.50;;
26042;SDS011;13818;52.156;5.382;2022-07-06T05:04:07;3.90;;;0.70;;
26042;SDS011;13818;52.156;5.382;2022-07-06T05:06:33;2.55;;;0.40;;
26042;SDS011;13818;52.156;5.382;2022-07-06T05:08:59;3.70;;;0.77;;
26042;SDS011;13818;52.156;5.382;2022-07-06T05:11:26;4.65;;;0.95;;
26042;SDS011;13818;52.156;5.382;2022-07-06T05:13:53;3.22;;;0.50;;
26042;SDS011;13818;52.156;5.382;2022-07-06T05:16:20;2.20;;;0.60;;
26042;SDS011;13818;52.156;5.382;2022-07-06T05:18:47;2.22;;;0.80;;
26042;SDS011;13818;52.156;5.382;2022-07-06T05:21:14;2.00;;;0.45;;
26042;SDS011;13818;52.156;5.382;2022-07-06T05:23:41;6.95;;;0.80;;
26042;SDS011;13818;52.156;5.382;2022-07-06T05:26:08;1.85;;;0.63;;
26042;SDS011;13818;52.156;5.382;2022-07-06T05:28:35;3.80;;;0.70;;
26042;SDS011;13818;52.156;5.382;2022-07-06T05:31:01;1.60;;;0.50;;
26042;SDS011;13818;52.156;5.382;2022-07-06T05:33:28;3.53;;;0.52;;
26042;SDS011;13818;52.156;5.382;2022-07-06T05:35:54;1.75;;;0.50;;
26042;SDS011;13818;52.156;5.382;2022-07-06T05:38:22;4.55;;;0.80;;
26042;SDS011;13818;52.156;5.382;2022-07-06T05:40:48;3.97;;;0.77;;
26042;SDS011;13818;52.156;5.382;2022-07-06T05:43:15;5.72;;;0.43;;
26042;SDS011;13818;52.156;5.382;2022-07-06T05:45:42;2.53;;;0.50;;
26042;SDS011;13818;52.156;5.382;2022-07-06T05:48:08;5.07;;;1.70;;
26042;SDS011;13818;52.156;5.382;2022-07-06T05:50:52;1.40;;;0.30;;
26042;SDS011;13818;52.156;5.382;2022-07-06T05:53:19;3.40;;;0.50;;
26042;SDS011;13818;52.156;5.382;2022-07-06T05:55:47;1.75;;;0.60;;
26042;SDS011;13818;52.156;5.382;2022-07-06T05:58:14;2.67;;;0.40;;
26042;SDS011;13818;52.156;5.382;2022-07-06T06:00:40;1.98;;;0.40;;
26042;SDS011;13818;52.156;5.382;2022-07-06T06:03:07;3.58;;;0.68;;
26042;SDS011;13818;52.156;5.382;2022-07-06T06:05:34;2.88;;;0.35;;
26042;SDS011;13818;52.156;5.382;2022-07-06T06:08:00;2.30;;;0.60;;
26042;SDS011;13818;52.156;5.382;2022-07-06T06:10:27;3.03;;;0.30;;
26042;SDS011;13818;52.156;5.382;2022-07-06T06:12:55;2.35;;;0.57;;
26042;SDS011;13818;52.156;5.382;2022-07-06T06:15:21;1.33;;;0.25;;
26042;SDS011;13818;52.156;5.382;2022-07-06T06:17:49;4.28;;;0.30;;
26042;SDS011;13818;52.156;5.382;2022-07-06T06:20:15;2.10;;;0.40;;
26042;SDS011;13818;52.156;5.382;2022-07-06T06:22:43;5.07;;;0.45;;
26042;SDS011;13818;52.156;5.382;2022-07-06T06:25:10;3.00;;;0.47;;
26042;SDS011;13818;52.156;5.382;2022-07-06T06:27:37;3.90;;;0.55;;
26042;SDS011;13818;52.156;5.382;2022-07-06T06:30:05;2.13;;;0.38;;
26042;SDS011;13818;52.156;5.382;2022-07-06T06:32:33;5.43;;;1.05;;
26042;SDS011;13818;52.156;5.382;2022-07-06T06:34:59;1.90;;;0.30;;
26042;SDS011;13818;52.156;5.382;2022-07-06T06:37:26;2.90;;;0.32;;
26042;SDS011;13818;52.156;5.382;2022-07-06T06:39:52;1.13;;;0.30;;
26042;SDS011;13818;52.156;5.382;2022-07-06T06:42:19;5.13;;;0.75;;
26042;SDS011;13818;52.156;5.382;2022-07-06T06:44:45;1.80;;;0.35;;
26042;SDS011;13818;52.156;5.382;2022-07-06T06:47:13;1.42;;;0.35;;
26042;SDS011;13818;52.156;5.382;2022-07-06T06:49:39;3.33;;;0.45;;
26042;SDS011;13818;52.156;5.382;2022-07-06T06:52:06;2.10;;;0.43;;
26042;SDS011;13818;52.156;5.382;2022-07-06T06:54:32;1.67;;;0.40;;
26042;SDS011;13818;52.156;5.382;2022-07-06T06:56:59;1.38;;;0.30;;
26042;SDS011;13818;52.156;5.382;2022-07-06T06:59:25;2.03;;;0.30;;
26042;SDS011;13818;52.156;5.382;2022-07-06T07:01:52;3.05;;;0.30;;
26042;SDS011;13818;52.156;5.382;2022-07-06T07:04:19;1.27;;;0.40;;
26042;SDS011;13818;52.156;5.382;2022-07-06T07:06:47;2.90;;;0.50;;
26042;SDS011;13818;52.156;5.382;2022-07-06T07:09:13;1.63;;;0.43;;
26042;SDS011;13818;52.156;5.382;2022-07-06T07:11:40;2.40;;;0.40;;
26042;SDS011;13818;52.156;5.382;2022-07-06T07:14:06;0.85;;;0.10;;
26042;SDS011;13818;52.156;5.382;2022-07-06T07:16:33;2.40;;;0.40;;
26042;SDS011;13818;52.156;5.382;2022-07-06T07:18:59;1.50;;;0.30;;
26042;SDS011;13818;52.156;5.382;2022-07-06T07:21:27;1.95;;;0.32;;
26042;SDS011;13818;52.156;5.382;2022-07-06T07:23:53;4.80;;;0.73;;
26042;SDS011;13818;52.156;5.382;2022-07-06T07:26:20;2.05;;;0.28;;
26042;SDS011;13818;52.156;5.382;2022-07-06T07:28:46;2.67;;;0.32;;
26042;SDS011;13818;52.156;5.382;2022-07-06T07:31:13;0.47;;;0.10;;
26042;SDS011;13818;52.156;5.382;2022-07-06T07:33:39;2.60;;;0.22;;
26042;SDS011;13818;52.156;5.382;2022-07-06T07:36:06;0.90;;;0.20;;
26042;SDS011;13818;52.156;5.382;2022-07-06T07:38:34;1.55;;;0.20;;
26042;SDS011;13818;52.156;5.382;2022-07-06T07:41:00;1.70;;;0.30;;
26042;SDS011;13818;52.156;5.382;2022-07-06T07:43:27;2.05;;;0.10;;
26042;SDS011;13818;52.156;5.382;2022-07-06T07:45:53;1.77;;;0.30;;
26042;SDS011;13818;52.156;5.382;2022-07-06T07:48:20;0.63;;;0.17;;
26042;SDS011;13818;52.156;5.382;2022-07-06T07:50:46;1.13;;;0.10;;
26042;SDS011;13818;52.156;5.382;2022-07-06T07:53:13;0.98;;;0.25;;
26042;SDS011;13818;52.156;5.382;2022-07-06T07:55:41;3.65;;;0.30;;
26042;SDS011;13818;52.156;5.382;2022-07-06T07:58:07;1.27;;;0.20;;
26042;SDS011;13818;52.156;5.382;2022-07-06T08:00:34;0.50;;;0.20;;
26042;SDS011;13818;52.156;5.382;2022-07-06T08:03:00;1.65;;;0.40;;
26042;SDS011;13818;52.156;5.382;2022-07-06T08:05:27;1.65;;;0.20;;
26042;SDS011;13818;52.156;5.382;2022-07-06T08:07:53;1.80;;;0.25;;
26042;SDS011;13818;52.156;5.382;2022-07-06T08:10:20;2.45;;;0.30;;
26042;SDS011;13818;52.156;5.382;2022-07-06T08:12:48;5.25;;;0.82;;
26042;SDS011;13818;52.156;5.382;2022-07-06T08:15:14;2.30;;;0.45;;
26042;SDS011;13818;52.156;5.382;2022-07-06T08:17:41;3.17;;;0.90;;
26042;SDS011;13818;52.156;5.382;2022-07-06T08:20:08;2.42;;;0.30;;
26042;SDS011;13818;52.156;5.382;2022-07-06T08:22:35;2.67;;;0.40;;
26042;SDS011;13818;52.156;5.382;2022-07-06T08:25:01;1.48;;;0.30;;
26042;SDS011;13818;52.156;5.382;2022-07-06T08:27:28;2.40;;;0.28;;
26042;SDS011;13818;52.156;5.382;2022-07-06T08:29:55;1.27;;;0.20;;
26042;SDS011;13818;52.156;5.382;2022-07-06T08:32:22;2.45;;;0.30;;
26042;SDS011;13818;52.156;5.382;2022-07-06T08:34:49;1.25;;;0.30;;
26042;SDS011;13818;52.156;5.382;2022-07-06T08:37:15;1.38;;;0.45;;
26042;SDS011;13818;52.156;5.382;2022-07-06T08:39:42;3.15;;;0.60;;
26042;SDS011;13818;52.156;5.382;2022-07-06T08:42:08;3.90;;;0.50;;
26042;SDS011;13818;52.156;5.382;2022-07-06T08:44:36;2.10;;;0.30;;
26042;SDS011;13818;52.156;5.382;2022-07-06T08:47:05;3.38;;;0.25;;
26042;SDS011;13818;52.156;5.382;2022-07-06T08:49:32;1.50;;;0.40;;
26042;SDS011;13818;52.156;5.382;2022-07-06T08:51:59;1.42;;;0.20;;
26042;SDS011;13818;52.156;5.382;2022-07-06T08:54:26;0.70;;;0.10;;
26042;SDS011;13818;52.156;5.382;2022-07-06T08:56:54;5.63;;;0.57;;
26042;SDS011;13818;52.156;5.382;2022-07-06T08:59:20;1.48;;;0.30;;
26042;SDS011;13818;52.156;5.382;2022-07-06T09:01:47;4.38;;;0.68;;
26042;SDS011;13818;52.156;5.382;2022-07-06T09:04:16;1.40;;;0.30;;
26042;SDS011;13818;52.156;5.382;2022-07-06T09:06:45;5.68;;;0.80;;
26042;SDS011;13818;52.156;5.382;2022-07-06T09:09:14;1.90;;;0.70;;
26042;SDS011;13818;52.156;5.382;2022-07-06T09:11:44;6.32;;;0.95;;
26042;SDS011;13818;52.156;5.382;2022-07-06T09:14:11;0.70;;;0.30;;
26042;SDS011;13818;52.156;5.382;2022-07-06T09:16:37;4.75;;;1.00;;
26042;SDS011;13818;52.156;5.382;2022-07-06T09:19:04;2.95;;;0.50;;
26042;SDS011;13818;52.156;5.382;2022-07-06T09:21:32;2.38;;;0.40;;
26042;SDS011;13818;52.156;5.382;2022-07-06T09:24:02;1.88;;;0.50;;
26042;SDS011;13818;52.156;5.382;2022-07-06T09:26:33;4.57;;;0.65;;
26042;SDS011;13818;52.156;5.382;2022-07-06T09:29:00;8.45;;;1.20;;
26042;SDS011;13818;52.156;5.382;2022-07-06T09:31:26;1.13;;;0.38;;
26042;SDS011;13818;52.156;5.382;2022-07-06T09:33:53;3.63;;;0.30;;
26042;SDS011;13818;52.156;5.382;2022-07-06T09:39:17;1.48;;;0.77;;
26042;SDS011;13818;52.156;5.382;2022-07-06T09:41:45;1.63;;;0.47;;
26042;SDS011;13818;52.156;5.382;2022-07-06T09:44:13;3.95;;;0.40;;
26042;SDS011;13818;52.156;5.382;2022-07-06T09:46:45;4.38;;;0.40;;
26042;SDS011;13818;52.156;5.382;2022-07-06T09:49:12;0.47;;;0.28;;
26042;SDS011;13818;52.156;5.382;2022-07-06T09:51:45;0.50;;;0.20;;
26042;SDS011;13818;52.156;5.382;2022-07-06T09:54:12;2.90;;;0.32;;
26042;SDS011;13818;52.156;5.382;2022-07-06T09:56:38;2.58;;;0.40;;
26042;SDS011;13818;52.156;5.382;2022-07-06T09:59:07;3.33;;;0.38;;
26042;SDS011;13818;52.156;5.382;2022-07-06T10:01:35;2.30;;;0.40;;
26042;SDS011;13818;52.156;5.382;2022-07-06T10:04:02;1.83;;;0.40;;
26042;SDS011;13818;52.156;5.382;2022-07-06T10:06:28;1.20;;;0.30;;
26042;SDS011;13818;52.156;5.382;2022-07-06T10:08:57;1.27;;;0.20;;
26042;SDS011;13818;52.156;5.382;2022-07-06T10:11:24;1.60;;;0.90;;
26042;SDS011;13818;52.156;5.382;2022-07-06T10:13:52;0.70;;;0.40;;
26042;SDS011;13818;52.156;5.382;2022-07-06T10:16:22;5.13;;;0.50;;
26042;SDS011;13818;52.156;5.382;2022-07-06T10:18:49;1.60;;;0.30;;
26042;SDS011;13818;52.156;5.382;2022-07-06T10:21:18;0.85;;;0.25;;
26042;SDS011;13818;52.156;5.382;2022-07-06T10:23:45;5.10;;;0.52;;
26042;SDS011;13818;52.156;5.382;2022-07-06T10:26:14;1.75;;;0.57;;
26042;SDS011;13818;52.156;5.382;2022-07-06T10:28:42;4.40;;;0.50;;
26042;SDS011;13818;52.156;5.382;2022-07-06T10:31:09;1.13;;;0.30;;
26042;SDS011;13818;52.156;5.382;2022-07-06T10:33:36;0.45;;;0.10;;
26042;SDS011;13818;52.156;5.382;2022-07-06T10:36:04;1.00;;;0.25;;
26042;SDS011;13818;52.156;5.382;2022-07-06T10:38:33;0.75;;;0.30;;
26042;SDS011;13818;52.156;5.382;2022-07-06T10:41:01;2.40;;;0.50;;
26042;SDS011;13818;52.156;5.382;2022-07-06T10:43:33;2.28;;;0.40;;
26042;SDS011;13818;52.156;5.382;2022-07-06T10:46:05;0.70;;;0.20;;
26042;SDS011;13818;52.156;5.382;2022-07-06T10:48:34;1.75;;;0.20;;
26042;SDS011;13818;52.156;5.382;2022-07-06T10:51:00;2.33;;;0.30;;
26042;SDS011;13818;52.156;5.382;2022-07-06T10:53:30;0.63;;;0.27;;
26042;SDS011;13818;52.156;5.382;2022-07-06T10:55:58;0.80;;;0.38;;
26042;SDS011;13818;52.156;5.382;2022-07-06T10:58:36;2.78;;;0.43;;
26042;SDS011;13818;52.156;5.382;2022-07-06T11:01:05;0.35;;;0.20;;
26042;SDS011;13818;52.156;5.382;2022-07-06T11:03:33;2.03;;;0.38;;
26042;SDS011;13818;52.156;5.382;2022-07-06T11:06:08;2.40;;;0.28;;
26042;SDS011;13818;52.156;5.382;2022-07-06T11:08:44;2.30;;;0.30;;
26042;SDS011;13818;52.156;5.382;2022-07-06T11:11:19;1.95;;;0.35;;
26042;SDS011;13818;52.156;5.382;2022-07-06T11:13:49;1.55;;;0.30;;
26042;SDS011;13818;52.156;5.382;2022-07-06T11:16:17;2.80;;;0.30;;
26042;SDS011;13818;52.156;5.382;2022-07-06T11:18:49;2.30;;;0.40;;
26042;SDS011;13818;52.156;5.382;2022-07-06T11:21:17;2.13;;;0.55;;
26042;SDS011;13818;52.156;5.382;2022-07-06T11:23:45;1.75;;;0.40;;
26042;SDS011;13818;52.156;5.382;2022-07-06T11:26:13;1.30;;;0.40;;
26042;SDS011;13818;52.156;5.382;2022-07-06T11:28:40;0.70;;;0.50;;
26042;SDS011;13818;52.156;5.382;2022-07-06T11:31:08;4.10;;;0.20;;
26042;SDS011;13818;52.156;5.382;2022-07-06T11:33:35;0.45;;;0.20;;
26042;SDS011;13818;52.156;5.382;2022-07-06T11:36:11;0.45;;;0.30;;
26042;SDS011;13818;52.156;5.382;2022-07-06T11:38:38;3.47;;;0.43;;
26042;SDS011;13818;52.156;5.382;2022-07-06T11:41:05;1.17;;;0.40;;
26042;SDS011;13818;52.156;5.382;2022-07-06T11:43:31;1.42;;;0.40;;
26042;SDS011;13818;52.156;5.382;2022-07-06T11:45:58;2.10;;;0.38;;
26042;SDS011;13818;52.156;5.382;2022-07-06T11:48:25;2.22;;;0.40;;
26042;SDS011;13818;52.156;5.382;2022-07-06T11:50:58;1.15;;;0.40;;
26042;SDS011;13818;52.156;5.382;2022-07-06T11:53:25;3.42;;;0.70;;
26042;SDS011;13818;52.156;5.382;2022-07-06T11:55:52;3.20;;;0.65;;
26042;SDS011;13818;52.156;5.382;2022-07-06T11:58:19;7.53;;;0.40;;
26042;SDS011;13818;52.156;5.382;2022-07-06T12:01:03;1.42;;;0.35;;
26042;SDS011;13818;52.156;5.382;2022-07-06T12:03:32;4.25;;;0.28;;
26042;SDS011;13818;52.156;5.382;2022-07-06T12:05:59;1.60;;;0.40;;
26042;SDS011;13818;52.156;5.382;2022-07-06T12:08:27;2.67;;;0.40;;
26042;SDS011;13818;52.156;5.382;2022-07-06T12:10:54;3.05;;;0.43;;
26042;SDS011;13818;52.156;5.382;2022-07-06T12:13:22;2.78;;;0.60;;
26042;SDS011;13818;52.156;5.382;2022-07-06T12:15:48;0.50;;;0.30;;
26042;SDS011;13818;52.156;5.382;2022-07-06T12:18:15;2.38;;;0.40;;
26042;SDS011;13818;52.156;5.382;2022-07-06T12:20:43;2.35;;;0.30;;
26042;SDS011;13818;52.156;5.382;2022-07-06T12:23:10;2.45;;;0.32;;
26042;SDS011;13818;52.156;5.382;2022-07-06T12:25:36;1.52;;;0.20;;
26042;SDS011;13818;52.156;5.382;2022-07-06T12:28:03;0.93;;;0.38;;
26042;SDS011;13818;52.156;5.382;2022-07-06T12:30:30;0.60;;;0.20;;
26042;SDS011;13818;52.156;5.382;2022-07-06T12:33:15;1.15;;;0.45;;
26042;SDS011;13818;52.156;5.382;2022-07-06T12:35:44;2.50;;;0.30;;
26042;SDS011;13818;52.156;5.382;2022-07-06T12:38:11;0.10;;;0.10;;
26042;SDS011;13818;52.156;5.382;2022-07-06T12:40:38;1.52;;;0.32;;
26042;SDS011;13818;52.156;5.382;2022-07-06T12:43:04;2.15;;;0.20;;
26042;SDS011;13818;52.156;5.382;2022-07-06T12:45:31;0.55;;;0.30;;
26042;SDS011;13818;52.156;5.382;2022-07-06T12:47:58;2.22;;;0.35;;
26042;SDS011;13818;52.156;5.382;2022-07-06T12:50:31;3.13;;;0.40;;
26042;SDS011;13818;52.156;5.382;2022-07-06T12:53:00;3.05;;;0.38;;
26042;SDS011;13818;52.156;5.382;2022-07-06T12:55:29;2.40;;;0.40;;
26042;SDS011;13818;52.156;5.382;2022-07-06T12:57:56;1.15;;;0.32;;
26042;SDS011;13818;52.156;5.382;2022-07-06T13:00:24;2.47;;;0.50;;
26042;SDS011;13818;52.156;5.382;2022-07-06T13:02:52;1.35;;;0.35;;
26042;SDS011;13818;52.156;5.382;2022-07-06T13:05:24;1.08;;;0.30;;
26042;SDS011;13818;52.156;5.382;2022-07-06T13:07:53;5.80;;;0.68;;
26042;SDS011;13818;52.156;5.382;2022-07-06T13:10:22;1.52;;;0.40;;
26042;SDS011;13818;52.156;5.382;2022-07-06T13:12:50;1.98;;;0.60;;
26042;SDS011;13818;52.156;5.382;2022-07-06T13:15:17;2.17;;;0.40;;
26042;SDS011;13818;52.156;5.382;2022-07-06T13:17:44;2.60;;;0.30;;
26042;SDS011;13818;52.156;5.382;2022-07-06T13:20:11;4.28;;;0.38;;
26042;SDS011;13818;52.156;5.382;2022-07-06T13:22:38;1.83;;;0.40;;
26042;SDS011;13818;52.156;5.382;2022-07-06T13:25:06;3.75;;;0.70;;
26042;SDS011;13818;52.156;5.382;2022-07-06T13:27:34;5.90;;;0.80;;
26042;SDS011;13818;52.156;5.382;2022-07-06T13:30:01;2.10;;;0.50;;
26042;SDS011;13818;52.156;5.382;2022-07-06T13:32:28;2.83;;;0.52;;
26042;SDS011;13818;52.156;5.382;2022-07-06T13:34:54;1.38;;;0.30;;
26042;SDS011;13818;52.156;5.382;2022-07-06T13:37:21;3.25;;;0.45;;
26042;SDS011;13818;52.156;5.382;2022-07-06T13:39:47;1.30;;;0.40;;
26042;SDS011;13818;52.156;5.382;2022-07-06T13:42:14;1.75;;;0.55;;
26042;SDS011;13818;52.156;5.382;2022-07-06T13:44:41;2.38;;;0.47;;
26042;SDS011;13818;52.156;5.382;2022-07-06T13:47:08;4.32;;;0.80;;
26042;SDS011;13818;52.156;5.382;2022-07-06T13:49:35;2.17;;;0.43;;
26042;SDS011;13818;52.156;5.382;2022-07-06T13:52:02;3.20;;;0.57;;
26042;SDS011;13818;52.156;5.382;2022-07-06T13:54:29;1.00;;;0.55;;
26042;SDS011;13818;52.156;5.382;2022-07-06T13:56:55;1.83;;;0.70;;
26042;SDS011;13818;52.156;5.382;2022-07-06T13:59:22;3.47;;;0.57;;
26042;SDS011;13818;52.156;5.382;2022-07-06T14:01:50;1.85;;;0.35;;
26042;SDS011;13818;52.156;5.382;2022-07-06T14:04:17;1.48;;;0.68;;
26042;SDS011;13818;52.156;5.382;2022-07-06T14:06:43;2.30;;;0.60;;
26042;SDS011;13818;52.156;5.382;2022-07-06T14:09:10;1.58;;;0.50;;
26042;SDS011;13818;52.156;5.382;2022-07-06T14:11:36;2.70;;;0.68;;
26042;SDS011;13818;52.156;5.382;2022-07-06T14:14:03;1.67;;;0.50;;
26042;SDS011;13818;52.156;5.382;2022-07-06T14:16:31;3.85;;;0.70;;
26042;SDS011;13818;52.156;5.382;2022-07-06T14:19:00;2.80;;;0.70;;
26042;SDS011;13818;52.156;5.382;2022-07-06T14:21:27;3.35;;;0.60;;
26042;SDS011;13818;52.156;5.382;2022-07-06T14:23:53;1.38;;;0.60;;
26042;SDS011;13818;52.156;5.382;2022-07-06T14:26:20;2.55;;;1.05;;
26042;SDS011;13818;52.156;5.382;2022-07-06T14:28:46;4.53;;;1.02;;
26042;SDS011;13818;52.156;5.382;2022-07-06T14:31:13;1.58;;;0.57;;
26042;SDS011;13818;52.156;5.382;2022-07-06T14:33:39;1.45;;;0.50;;
26042;SDS011;13818;52.156;5.382;2022-07-06T14:36:07;1.73;;;0.70;;
26042;SDS011;13818;52.156;5.382;2022-07-06T14:38:33;2.55;;;0.70;;
26042;SDS011;13818;52.156;5.382;2022-07-06T14:41:00;3.05;;;0.57;;
26042;SDS011;13818;52.156;5.382;2022-07-06T14:43:26;2.65;;;0.70;;
26042;SDS011;13818;52.156;5.382;2022-07-06T14:45:53;3.28;;;0.73;;
26042;SDS011;13818;52.156;5.382;2022-07-06T14:48:19;2.83;;;0.80;;
26042;SDS011;13818;52.156;5.382;2022-07-06T14:50:46;3.85;;;0.90;;
26042;SDS011;13818;52.156;5.382;2022-07-06T14:53:14;1.50;;;0.77;;